createdAt,value
2022-09-12T00:02:30.328Z,16.57
2022-09-12T00:06:35.856Z,16.58
2022-09-12T00:10:40.424Z,16.55
2022-09-12T00:14:43.424Z,16.54
2022-09-12T00:18:48.772Z,16.54
2022-09-12T00:22:51.722Z,16.53
2022-09-12T00:26:54.769Z,16.52
2022-09-12T00:30:58.031Z,16.52
2022-09-12T00:35:03.372Z,16.52
2022-09-12T00:39:06.940Z,16.53
2022-09-12T00:43:15.184Z,16.54
2022-09-12T00:47:23.431Z,16.53
2022-09-12T00:51:30.582Z,16.55
2022-09-12T00:55:39.117Z,16.57
2022-09-12T00:59:46.012Z,16.58
2022-09-12T01:03:50.097Z,16.60
2022-09-12T01:07:57.656Z,16.61
2022-09-12T01:12:03.161Z,16.63
2022-09-12T01:16:07.929Z,16.65
2022-09-12T01:20:52.648Z,16.64
2022-09-12T01:25:08.586Z,16.66
2022-09-12T01:29:28.892Z,16.67
2022-09-12T01:33:57.033Z,16.69
2022-09-12T01:38:10.039Z,16.68
2022-09-12T01:42:22.180Z,16.69
2022-09-12T01:46:33.305Z,16.72
2022-09-12T01:50:44.141Z,16.73
2022-09-12T01:54:51.792Z,16.75
2022-09-12T01:59:00.384Z,16.75
2022-09-12T02:03:10.002Z,16.78
2022-09-12T02:07:17.651Z,16.79
2022-09-12T02:11:21.524Z,16.82
2022-09-12T02:15:33.836Z,16.81
2022-09-12T02:19:41.403Z,16.81
2022-09-12T02:23:49.637Z,16.82
2022-09-12T02:27:56.666Z,16.82
2022-09-12T02:32:03.324Z,16.84
2022-09-12T02:36:21.996Z,16.82
2022-09-12T02:40:26.992Z,16.81
2022-09-12T02:44:32.228Z,16.80
2022-09-12T02:48:41.549Z,16.79
2022-09-12T02:52:45.382Z,16.75
2022-09-12T02:56:49.853Z,16.72
2022-09-12T03:00:59.788Z,16.69
2022-09-12T03:05:23.958Z,16.66
2022-09-12T03:09:37.899Z,16.64
2022-09-12T03:13:54.146Z,16.61
2022-09-12T03:18:21.565Z,16.56
2022-09-12T03:22:32.756Z,16.54
2022-09-12T03:26:41.488Z,16.53
2022-09-12T03:30:48.288Z,16.51
2022-09-12T03:34:51.558Z,16.50
2022-09-12T03:38:54.739Z,16.47
2022-09-12T03:42:57.923Z,16.46
2022-09-12T03:47:02.673Z,16.44
2022-09-12T03:51:08.174Z,16.40
2022-09-12T03:55:11.231Z,16.38
2022-09-12T03:59:14.216Z,16.38
2022-09-12T04:03:19.408Z,16.36
2022-09-12T04:07:22.368Z,16.33
2022-09-12T04:11:25.369Z,16.30
2022-09-12T04:15:28.444Z,16.31
2022-09-12T04:19:32.888Z,16.29
2022-09-12T04:23:36.867Z,16.27
2022-09-12T04:27:40.131Z,16.28
2022-09-12T04:31:43.425Z,16.29
2022-09-12T04:35:47.990Z,16.30
2022-09-12T04:39:51.883Z,16.31
2022-09-12T04:43:58.231Z,16.31
2022-09-12T04:48:01.844Z,16.31
2022-09-12T04:52:06.332Z,16.29
2022-09-12T04:56:10.970Z,16.27
2022-09-12T05:00:15.331Z,16.28
2022-09-12T05:04:19.604Z,16.30
2022-09-12T05:08:24.043Z,16.32
2022-09-12T05:12:27.045Z,16.33
2022-09-12T05:16:31.304Z,16.37
2022-09-12T05:20:34.539Z,16.38
2022-09-12T05:24:39.749Z,16.42
2022-09-12T05:28:43.754Z,16.45
2022-09-12T05:32:47.008Z,16.47
2022-09-12T05:36:50.121Z,16.48
2022-09-12T05:40:54.496Z,16.50
2022-09-12T05:44:57.622Z,16.53
2022-09-12T05:49:04.803Z,16.57
2022-09-12T05:53:08.594Z,16.62
2022-09-12T05:57:13.084Z,16.65
2022-09-12T06:01:18.010Z,16.70
2022-09-12T06:05:21.178Z,16.75
2022-09-12T06:09:25.505Z,16.84
2022-09-12T06:13:29.963Z,16.91
2022-09-12T06:17:33.438Z,16.96
2022-09-12T06:21:37.841Z,17.00
2022-09-12T06:25:47.683Z,17.05
2022-09-12T06:29:52.602Z,17.06
2022-09-12T06:33:56.872Z,17.13
2022-09-12T06:37:59.857Z,17.17
2022-09-12T06:42:02.861Z,17.23
2022-09-12T06:46:13.189Z,17.30
2022-09-12T06:50:16.857Z,17.38
2022-09-12T06:54:20.123Z,17.42
2022-09-12T06:58:23.338Z,17.46
2022-09-12T07:02:27.758Z,17.52
2022-09-12T07:06:32.722Z,17.61
2022-09-12T07:10:35.862Z,17.59
2022-09-12T07:14:39.012Z,17.62
2022-09-12T07:18:43.753Z,17.60
2022-09-12T07:22:47.042Z,17.67
2022-09-12T07:26:50.015Z,17.73
2022-09-12T07:30:54.144Z,17.80
2022-09-12T07:34:58.563Z,17.87
2022-09-12T07:39:02.007Z,17.95
2022-09-12T07:43:05.036Z,18.03
2022-09-12T07:47:08.407Z,18.12
2022-09-12T07:51:13.379Z,18.20
2022-09-12T07:55:16.742Z,18.29
2022-09-12T07:59:41.476Z,18.43
2022-09-12T08:03:45.152Z,18.57
2022-09-12T08:07:49.786Z,18.66
2022-09-12T08:11:53.046Z,18.80
2022-09-12T08:16:00.013Z,18.94
2022-09-12T08:20:04.066Z,19.08
2022-09-12T08:24:08.944Z,19.15
2022-09-12T08:28:11.939Z,19.17
2022-09-12T08:32:15.163Z,19.16
2022-09-12T08:36:21.024Z,19.23
2022-09-12T08:40:25.826Z,19.37
2022-09-12T08:44:51.699Z,19.47
2022-09-12T08:48:58.583Z,19.46
2022-09-12T08:53:05.759Z,19.52
2022-09-12T08:57:13.040Z,19.59
2022-09-12T09:01:31.378Z,19.67
2022-09-12T09:05:47.367Z,19.72
2022-09-12T09:10:03.537Z,19.78
2022-09-12T09:14:39.975Z,19.71
2022-09-12T09:18:45.809Z,19.64
2022-09-12T09:22:53.518Z,19.64
2022-09-12T09:27:02.123Z,19.85
2022-09-12T09:31:07.221Z,19.95
2022-09-12T09:35:18.828Z,20.18
2022-09-12T09:39:36.235Z,20.39
2022-09-12T09:43:39.893Z,20.40
2022-09-12T09:47:46.586Z,20.46
2022-09-12T09:51:50.151Z,20.63
2022-09-12T09:55:56.683Z,20.80
2022-09-12T09:59:59.911Z,20.92
2022-09-12T10:04:04.585Z,20.93
2022-09-12T10:08:09.040Z,20.95
2022-09-12T10:12:28.177Z,21.00
2022-09-12T10:16:33.354Z,21.05
2022-09-12T10:20:41.738Z,21.05
2022-09-12T10:24:50.731Z,21.02
2022-09-12T10:28:56.944Z,21.20
2022-09-12T10:33:08.397Z,21.40
2022-09-12T10:37:24.394Z,21.44
2022-09-12T10:41:27.874Z,21.52
2022-09-12T10:45:33.111Z,21.61
2022-09-12T10:49:40.104Z,21.78
2022-09-12T10:53:47.024Z,21.91
2022-09-12T10:58:05.359Z,22.09
2022-09-12T11:02:21.477Z,22.22
2022-09-12T11:06:31.589Z,22.22
2022-09-12T11:10:45.071Z,22.14
2022-09-12T11:15:03.519Z,22.09
2022-09-12T11:19:22.043Z,22.10
2022-09-12T11:24:00.387Z,22.25
2022-09-12T11:28:36.525Z,22.25
2022-09-12T11:33:05.598Z,22.22
2022-09-12T11:37:27.858Z,22.29
2022-09-12T11:41:33.892Z,22.38
2022-09-12T11:45:43.710Z,22.42
2022-09-12T11:49:50.700Z,22.58
2022-09-12T11:54:13.523Z,22.73
2022-09-12T11:58:19.496Z,22.84
2022-09-12T12:02:28.863Z,22.86
2022-09-12T12:06:35.234Z,22.90
2022-09-12T12:10:42.363Z,22.86
2022-09-12T12:14:49.029Z,22.82
2022-09-12T12:18:58.482Z,22.87
2022-09-12T12:23:02.227Z,22.93
2022-09-12T12:27:23.743Z,22.99
2022-09-12T12:31:29.277Z,22.98
2022-09-12T12:35:41.950Z,22.93
2022-09-12T12:40:05.840Z,22.89
2022-09-12T12:44:48.884Z,22.91
2022-09-12T12:49:09.497Z,22.97
2022-09-12T12:53:22.418Z,23.02
2022-09-12T12:57:50.421Z,23.13
2022-09-12T13:01:56.804Z,23.21
2022-09-12T13:06:03.474Z,23.22
2022-09-12T13:10:09.341Z,23.31
2022-09-12T13:14:36.406Z,23.31
2022-09-12T13:18:44.620Z,23.18
2022-09-12T13:22:50.080Z,23.10
2022-09-12T13:26:54.821Z,22.97
2022-09-12T13:31:03.421Z,22.84
2022-09-12T13:35:15.366Z,22.79
2022-09-12T13:39:27.528Z,22.76
2022-09-12T13:43:40.068Z,22.80
2022-09-12T13:47:45.320Z,22.74
2022-09-12T13:51:59.549Z,22.63
2022-09-12T13:56:03.797Z,22.60
2022-09-12T14:00:18.212Z,22.68
2022-09-12T14:04:40.257Z,22.69
2022-09-12T14:08:44.909Z,22.68
2022-09-12T14:12:50.822Z,22.72
2022-09-12T14:16:55.512Z,22.67
2022-09-12T14:21:10.405Z,22.63
2022-09-12T14:25:16.614Z,22.64
2022-09-12T14:29:21.007Z,22.66
2022-09-12T14:33:25.695Z,22.65
2022-09-12T14:37:28.726Z,22.64
2022-09-12T14:41:37.373Z,22.61
2022-09-12T14:45:41.017Z,22.56
2022-09-12T14:49:45.691Z,22.54
2022-09-12T14:53:52.509Z,22.51
2022-09-12T14:58:13.357Z,22.48
2022-09-12T15:02:24.223Z,22.44
2022-09-12T15:06:31.700Z,22.44
2022-09-12T15:10:36.896Z,22.45
2022-09-12T15:14:39.927Z,22.42
2022-09-12T15:18:43.331Z,22.36
2022-09-12T15:22:48.070Z,22.26
2022-09-12T15:26:51.070Z,22.22
2022-09-12T15:30:57.059Z,22.20
2022-09-12T15:35:00.305Z,22.19
2022-09-12T15:39:05.066Z,22.17
2022-09-12T15:43:08.261Z,22.18
2022-09-12T15:47:13.940Z,22.16
2022-09-12T15:51:18.510Z,22.18
2022-09-12T15:55:24.542Z,22.22
2022-09-12T15:59:27.727Z,22.22
2022-09-12T16:03:31.383Z,22.21
2022-09-12T16:07:34.572Z,22.18
2022-09-12T16:11:39.675Z,22.14
2022-09-12T16:15:42.749Z,22.09
2022-09-12T16:19:45.859Z,22.02
2022-09-12T16:23:49.784Z,21.93
2022-09-12T16:27:54.402Z,21.87
2022-09-12T16:31:57.747Z,21.85
2022-09-12T16:36:05.131Z,21.79
2022-09-12T16:40:09.387Z,21.75
2022-09-12T16:44:14.384Z,21.72
2022-09-12T16:48:17.603Z,21.66
2022-09-12T16:52:20.761Z,21.59
2022-09-12T16:56:24.977Z,21.58
2022-09-12T17:00:29.330Z,21.51
2022-09-12T17:04:32.356Z,21.44
2022-09-12T17:08:38.236Z,21.37
2022-09-12T17:12:41.546Z,21.20
2022-09-12T17:16:51.681Z,21.09
2022-09-12T17:20:54.991Z,21.02
2022-09-12T17:24:58.284Z,20.97
2022-09-12T17:29:01.651Z,20.93
2022-09-12T17:33:06.200Z,20.85
2022-09-12T17:37:09.639Z,20.76
2022-09-12T17:41:16.048Z,20.69
2022-09-12T17:45:19.243Z,20.61
2022-09-12T17:49:24.183Z,20.56
2022-09-12T17:53:27.251Z,20.51
2022-09-12T17:57:30.897Z,20.45
2022-09-12T18:01:51.448Z,20.39
2022-09-12T18:05:57.703Z,20.29
2022-09-12T18:10:00.814Z,20.24
2022-09-12T18:14:03.889Z,20.20
2022-09-12T18:18:07.378Z,20.14
2022-09-12T18:22:12.002Z,20.06
2022-09-12T18:26:15.337Z,20.03
2022-09-12T18:30:22.156Z,19.98
2022-09-12T18:34:25.347Z,19.93
2022-09-12T18:38:29.698Z,19.85
2022-09-12T18:42:32.851Z,19.78
2022-09-12T18:46:36.747Z,19.69
2022-09-12T18:50:39.723Z,19.59
2022-09-12T18:54:44.117Z,19.52
2022-09-12T18:58:51.964Z,19.46
2022-09-12T19:02:55.210Z,19.40
2022-09-12T19:06:58.159Z,19.35
2022-09-12T19:11:03.293Z,19.28
2022-09-12T19:15:07.220Z,19.19
2022-09-12T19:19:10.472Z,19.12
2022-09-12T19:23:13.788Z,19.04
2022-09-12T19:27:18.121Z,18.98
2022-09-12T19:31:22.018Z,18.91
2022-09-12T19:35:25.641Z,18.85
2022-09-12T19:39:28.962Z,18.77
2022-09-12T19:43:33.507Z,18.71
2022-09-12T19:47:36.508Z,18.65
2022-09-12T19:51:39.810Z,18.62
2022-09-12T19:55:42.864Z,18.59
2022-09-12T19:59:48.107Z,18.53
2022-09-12T20:03:52.590Z,18.48
2022-09-12T20:07:55.596Z,18.41
2022-09-12T20:11:58.625Z,18.36
2022-09-12T20:16:08.760Z,18.31
2022-09-12T20:20:12.266Z,18.27
2022-09-12T20:24:15.848Z,18.22
2022-09-12T20:28:18.890Z,18.18
2022-09-12T20:32:23.283Z,18.13
2022-09-12T20:36:27.055Z,18.08
2022-09-12T20:40:30.217Z,18.00
2022-09-12T20:44:33.205Z,17.95
2022-09-12T20:48:37.838Z,17.90
2022-09-12T20:52:41.001Z,17.85
2022-09-12T20:56:44.477Z,17.79
2022-09-12T21:00:47.712Z,17.69
2022-09-12T21:04:52.443Z,17.62
2022-09-12T21:08:58.685Z,17.56
2022-09-12T21:13:01.796Z,17.51
2022-09-12T21:17:05.624Z,17.47
2022-09-12T21:21:11.718Z,17.43
2022-09-12T21:25:14.943Z,17.41
2022-09-12T21:29:18.093Z,17.39
2022-09-12T21:33:22.643Z,17.35
2022-09-12T21:37:27.490Z,17.31
2022-09-12T21:41:30.707Z,17.28
2022-09-12T21:45:34.150Z,17.25
2022-09-12T21:49:37.379Z,17.23
2022-09-12T21:53:42.226Z,17.21
2022-09-12T21:57:45.316Z,17.18
2022-09-12T22:01:48.413Z,17.13
2022-09-12T22:05:52.531Z,17.07
2022-09-12T22:09:57.341Z,17.01
2022-09-12T22:14:00.365Z,16.97
2022-09-12T22:18:03.314Z,16.94
2022-09-12T22:22:24.386Z,16.91
2022-09-12T22:26:29.230Z,16.88
2022-09-12T22:30:32.452Z,16.83
2022-09-12T22:34:35.668Z,16.83
2022-09-12T22:38:38.989Z,16.81
2022-09-12T22:42:43.629Z,16.78
2022-09-12T22:46:46.899Z,16.78
2022-09-12T22:50:50.290Z,16.78
2022-09-12T22:54:53.582Z,16.80
2022-09-12T22:58:58.608Z,16.80
2022-09-12T23:03:02.294Z,16.77
2022-09-12T23:07:05.569Z,16.73
2022-09-12T23:11:10.931Z,16.68
2022-09-12T23:15:15.465Z,16.66
2022-09-12T23:19:18.454Z,16.63
2022-09-12T23:23:21.418Z,16.64
2022-09-12T23:27:27.099Z,16.63
2022-09-12T23:31:33.477Z,16.61
2022-09-12T23:35:36.658Z,16.57
2022-09-12T23:39:39.815Z,16.52
2022-09-12T23:43:45.347Z,16.49
2022-09-12T23:47:49.722Z,16.46
2022-09-12T23:51:52.913Z,16.44
2022-09-12T23:55:56.028Z,16.40
2022-09-12T23:59:59.037Z,16.35
